createdAt,value
2022-10-18T00:08:44.797Z,7.90
2022-10-18T00:18:44.802Z,8.60
2022-10-18T00:28:44.850Z,8.30
2022-10-18T00:38:44.807Z,7.70
2022-10-18T00:48:44.887Z,8.20
2022-10-18T00:58:44.823Z,8.20
2022-10-18T01:08:44.824Z,7.90
2022-10-18T01:18:44.913Z,8.00
2022-10-18T01:28:44.893Z,8.30
2022-10-18T01:38:44.830Z,9.10
2022-10-18T01:48:44.840Z,9.30
2022-10-18T01:58:44.944Z,8.60
2022-10-18T02:08:44.933Z,8.60
2022-10-18T02:18:44.861Z,9.10
2022-10-18T02:28:44.874Z,8.70
2022-10-18T02:38:44.852Z,9.60
2022-10-18T02:48:44.883Z,8.90
2022-10-18T02:58:44.875Z,9.00
2022-10-18T03:08:44.888Z,8.30
2022-10-18T03:18:44.874Z,8.20
2022-10-18T03:28:44.921Z,9.30
2022-10-18T03:38:44.883Z,8.80
2022-10-18T03:48:44.891Z,8.90
2022-10-18T03:58:44.890Z,9.00
2022-10-18T04:08:44.892Z,11.50
2022-10-18T04:18:44.891Z,8.50
2022-10-18T04:28:44.962Z,9.70
2022-10-18T04:38:44.907Z,9.50
2022-10-18T04:48:44.921Z,9.00
2022-10-18T04:58:44.925Z,8.80
2022-10-18T05:08:44.996Z,7.90
2022-10-18T05:18:45.002Z,8.00
2022-10-18T05:28:45.083Z,8.80
2022-10-18T05:38:44.939Z,9.20
2022-10-18T05:48:44.957Z,8.90
2022-10-18T05:58:44.939Z,14.90
2022-10-18T06:08:44.983Z,8.70
2022-10-18T06:18:44.956Z,8.60
2022-10-18T06:28:44.979Z,8.40
2022-10-18T06:38:44.942Z,7.60
2022-10-18T06:48:44.956Z,7.70
2022-10-18T06:58:45.079Z,8.80
2022-10-18T07:08:44.976Z,7.90
2022-10-18T07:18:44.995Z,9.00
2022-10-18T07:28:45.086Z,9.00
2022-10-18T07:38:44.985Z,8.30
2022-10-18T07:48:45.002Z,8.20
2022-10-18T07:58:45.015Z,8.50
2022-10-18T08:08:44.990Z,8.80
2022-10-18T08:18:45.015Z,8.80
2022-10-18T08:28:53.739Z,9.00
2022-10-18T08:38:45.033Z,10.10
2022-10-18T08:48:45.019Z,10.50
2022-10-18T08:58:45.030Z,10.30
2022-10-18T09:08:45.028Z,8.80
2022-10-18T09:18:45.032Z,11.60
2022-10-18T09:38:45.028Z,10.40
2022-10-18T09:48:45.047Z,10.80
2022-10-18T09:58:45.041Z,10.10
2022-10-18T10:08:45.062Z,10.60
2022-10-18T10:18:45.052Z,10.50
2022-10-18T10:28:45.115Z,11.30
2022-10-18T10:38:45.154Z,11.10
2022-10-18T10:48:45.153Z,12.10
2022-10-18T10:58:45.060Z,12.80
2022-10-18T11:58:45.098Z,16.00
2022-10-18T12:08:45.119Z,10.60
2022-10-18T12:18:45.199Z,10.80
2022-10-18T12:28:45.163Z,10.90
2022-10-18T12:38:45.103Z,10.10
2022-10-18T12:48:45.111Z,11.20
2022-10-18T12:58:45.126Z,10.30
2022-10-18T13:08:45.126Z,11.10
2022-10-18T13:18:45.216Z,10.60
2022-10-18T13:28:45.278Z,11.40
2022-10-18T13:38:45.154Z,9.20
2022-10-18T13:48:45.141Z,11.30
2022-10-18T13:58:53.765Z,11.00
2022-10-18T14:08:45.150Z,12.80
2022-10-18T14:18:45.162Z,15.50
2022-10-18T14:28:59.575Z,15.60
2022-10-18T14:38:45.184Z,8.10
2022-10-18T14:48:45.191Z,3.80
2022-10-18T14:58:45.191Z,3.70
2022-10-18T15:08:45.179Z,4.00
2022-10-18T15:18:45.191Z,3.50
2022-10-18T15:28:45.204Z,3.80
2022-10-18T15:38:47.643Z,3.10
2022-10-18T15:48:45.212Z,2.80
2022-10-18T15:58:45.183Z,2.90
2022-10-18T16:08:45.211Z,3.10
2022-10-18T16:18:45.207Z,5.60
2022-10-18T16:28:45.264Z,4.80
2022-10-18T16:38:45.201Z,4.40
2022-10-18T16:48:45.209Z,4.90
2022-10-18T16:58:45.237Z,5.90
2022-10-18T17:08:45.222Z,4.90
2022-10-18T17:18:45.241Z,3.80
2022-10-18T17:28:45.260Z,4.40
2022-10-18T17:38:45.251Z,4.40
2022-10-18T17:48:45.270Z,5.10
2022-10-18T17:58:45.299Z,4.50
2022-10-18T18:08:45.412Z,4.60
2022-10-18T18:18:45.329Z,3.50
2022-10-18T18:28:45.717Z,3.60
2022-10-18T18:38:45.428Z,4.40
2022-10-18T18:48:45.430Z,5.10
2022-10-18T18:58:45.373Z,2.60
2022-10-18T19:08:45.298Z,2.80
2022-10-18T19:18:45.278Z,2.10
2022-10-18T19:28:45.371Z,4.60
2022-10-18T19:38:45.274Z,6.70
2022-10-18T19:48:45.283Z,11.70
2022-10-18T19:58:45.323Z,8.10
2022-10-18T20:08:45.352Z,2.80
2022-10-18T20:18:45.318Z,2.00
2022-10-18T20:28:45.343Z,3.80
2022-10-18T20:38:45.286Z,6.20
2022-10-18T20:48:45.296Z,3.50
2022-10-18T20:58:45.428Z,3.40
2022-10-18T21:08:45.298Z,5.40
2022-10-18T21:18:45.402Z,5.30
2022-10-18T21:28:45.382Z,5.80
2022-10-18T21:38:45.346Z,5.50
2022-10-18T21:48:45.337Z,5.20
2022-10-18T21:58:45.337Z,4.80
2022-10-18T22:08:45.469Z,5.50
2022-10-18T22:18:45.342Z,5.30
2022-10-18T22:28:45.468Z,5.70
2022-10-18T22:38:45.350Z,6.00
2022-10-18T22:48:45.466Z,6.20
2022-10-18T22:58:45.357Z,6.40
2022-10-18T23:08:45.565Z,6.90
2022-10-18T23:18:45.499Z,7.00
2022-10-18T23:28:45.422Z,7.50
2022-10-18T23:38:45.382Z,9.10
2022-10-18T23:48:45.390Z,10.00
